sensor_id;sensor_type;location;lat;lon;timestamp;temperature;humidity
53045;DHT22;38930;52.766;6.884;2022-12-08T00:00:11;1.70;99.90
53045;DHT22;38930;52.766;6.884;2022-12-08T00:02:36;1.70;99.90
53045;DHT22;38930;52.766;6.884;2022-12-08T00:05:02;1.70;99.90
53045;DHT22;38930;52.766;6.884;2022-12-08T00:07:46;1.80;99.90
53045;DHT22;38930;52.766;6.884;2022-12-08T00:10:31;1.80;99.90
53045;DHT22;38930;52.766;6.884;2022-12-08T00:12:56;1.80;99.90
53045;DHT22;38930;52.766;6.884;2022-12-08T00:15:22;1.90;99.90
53045;DHT22;38930;52.766;6.884;2022-12-08T00:17:47;1.90;99.90
53045;DHT22;38930;52.766;6.884;2022-12-08T00:20:13;2.00;99.90
53045;DHT22;38930;52.766;6.884;2022-12-08T00:22:39;2.00;99.90
53045;DHT22;38930;52.766;6.884;2022-12-08T00:25:05;2.00;99.90
53045;DHT22;38930;52.766;6.884;2022-12-08T00:27:30;2.10;99.90
53045;DHT22;38930;52.766;6.884;2022-12-08T00:29:56;2.10;99.90
53045;DHT22;38930;52.766;6.884;2022-12-08T00:32:21;2.10;99.90
53045;DHT22;38930;52.766;6.884;2022-12-08T00:34:47;2.10;99.90
53045;DHT22;38930;52.766;6.884;2022-12-08T00:37:13;2.00;99.90
53045;DHT22;38930;52.766;6.884;2022-12-08T00:39:39;2.00;99.90
53045;DHT22;38930;52.766;6.884;2022-12-08T00:42:04;2.00;99.90
53045;DHT22;38930;52.766;6.884;2022-12-08T00:44:36;1.90;99.90
53045;DHT22;38930;52.766;6.884;2022-12-08T00:47:01;1.90;99.90
53045;DHT22;38930;52.766;6.884;2022-12-08T00:49:27;1.90;99.90
53045;DHT22;38930;52.766;6.884;2022-12-08T00:51:53;1.90;99.90
53045;DHT22;38930;52.766;6.884;2022-12-08T00:54:19;1.90;99.90
53045;DHT22;38930;52.766;6.884;2022-12-08T00:56:45;1.80;99.90
53045;DHT22;38930;52.766;6.884;2022-12-08T00:59:11;1.80;99.90
53045;DHT22;38930;52.766;6.884;2022-12-08T01:01:36;1.80;99.90
53045;DHT22;38930;52.766;6.884;2022-12-08T01:04:03;1.80;99.90
53045;DHT22;38930;52.766;6.884;2022-12-08T01:06:29;1.80;99.90
53045;DHT22;38930;52.766;6.884;2022-12-08T01:08:55;1.80;99.90
53045;DHT22;38930;52.766;6.884;2022-12-08T01:11:21;1.80;99.90
53045;DHT22;38930;52.766;6.884;2022-12-08T01:13:46;1.70;99.90
53045;DHT22;38930;52.766;6.884;2022-12-08T01:16:24;1.70;99.90
53045;DHT22;38930;52.766;6.884;2022-12-08T01:18:50;1.70;99.90
53045;DHT22;38930;52.766;6.884;2022-12-08T01:21:16;1.70;99.90
53045;DHT22;38930;52.766;6.884;2022-12-08T01:23:42;1.60;99.90
53045;DHT22;38930;52.766;6.884;2022-12-08T01:26:09;1.60;99.90
53045;DHT22;38930;52.766;6.884;2022-12-08T01:28:36;1.60;99.90
53045;DHT22;38930;52.766;6.884;2022-12-08T01:31:02;1.60;99.90
53045;DHT22;38930;52.766;6.884;2022-12-08T01:33:28;1.60;99.90
53045;DHT22;38930;52.766;6.884;2022-12-08T01:35:54;1.50;99.90
53045;DHT22;38930;52.766;6.884;2022-12-08T01:38:20;1.50;99.90
53045;DHT22;38930;52.766;6.884;2022-12-08T01:40:46;1.50;99.90
53045;DHT22;38930;52.766;6.884;2022-12-08T01:43:16;1.50;99.90
53045;DHT22;38930;52.766;6.884;2022-12-08T01:45:43;1.50;99.90
53045;DHT22;38930;52.766;6.884;2022-12-08T01:50:44;1.40;99.90
53045;DHT22;38930;52.766;6.884;2022-12-08T01:53:14;1.40;99.90
53045;DHT22;38930;52.766;6.884;2022-12-08T01:55:46;1.40;99.90
53045;DHT22;38930;52.766;6.884;2022-12-08T01:58:22;1.40;99.90
53045;DHT22;38930;52.766;6.884;2022-12-08T02:00:50;1.40;99.90
53045;DHT22;38930;52.766;6.884;2022-12-08T02:03:26;1.40;99.90
53045;DHT22;38930;52.766;6.884;2022-12-08T02:05:52;1.40;99.90
53045;DHT22;38930;52.766;6.884;2022-12-08T02:08:18;1.40;99.90
53045;DHT22;38930;52.766;6.884;2022-12-08T02:10:46;1.40;99.90
53045;DHT22;38930;52.766;6.884;2022-12-08T02:13:13;1.40;99.90
53045;DHT22;38930;52.766;6.884;2022-12-08T02:21:45;1.50;99.90
53045;DHT22;38930;52.766;6.884;2022-12-08T02:24:38;1.50;99.90
53045;DHT22;38930;52.766;6.884;2022-12-08T02:35:22;1.70;99.90
53045;DHT22;38930;52.766;6.884;2022-12-08T02:37:58;1.70;99.90
53045;DHT22;38930;52.766;6.884;2022-12-08T02:44:27;1.90;99.90
53045;DHT22;38930;52.766;6.884;2022-12-08T02:46:31;1.90;99.90
53045;DHT22;38930;52.766;6.884;2022-12-08T02:48:58;1.90;99.90
53045;DHT22;38930;52.766;6.884;2022-12-08T02:51:24;2.00;99.90
53045;DHT22;38930;52.766;6.884;2022-12-08T02:53:51;2.00;99.90
53045;DHT22;38930;52.766;6.884;2022-12-08T02:59:15;2.00;99.90
53045;DHT22;38930;52.766;6.884;2022-12-08T03:07:32;2.20;99.90
53045;DHT22;38930;52.766;6.884;2022-12-08T03:10:09;2.10;99.90
53045;DHT22;38930;52.766;6.884;2022-12-08T03:12:44;2.20;99.90
53045;DHT22;38930;52.766;6.884;2022-12-08T03:15:16;2.20;99.90
53045;DHT22;38930;52.766;6.884;2022-12-08T03:17:45;2.20;99.90
53045;DHT22;38930;52.766;6.884;2022-12-08T03:20:15;2.20;99.90
53045;DHT22;38930;52.766;6.884;2022-12-08T03:22:43;2.20;99.90
53045;DHT22;38930;52.766;6.884;2022-12-08T03:25:12;2.20;99.90
53045;DHT22;38930;52.766;6.884;2022-12-08T03:27:39;2.30;99.90
53045;DHT22;38930;52.766;6.884;2022-12-08T03:30:06;2.30;99.90
53045;DHT22;38930;52.766;6.884;2022-12-08T03:35:07;2.30;99.90
53045;DHT22;38930;52.766;6.884;2022-12-08T03:37:35;2.40;99.90
53045;DHT22;38930;52.766;6.884;2022-12-08T03:40:02;2.40;99.90
53045;DHT22;38930;52.766;6.884;2022-12-08T03:42:28;2.40;99.90
53045;DHT22;38930;52.766;6.884;2022-12-08T03:44:53;2.40;99.90
53045;DHT22;38930;52.766;6.884;2022-12-08T03:47:19;2.40;99.90
53045;DHT22;38930;52.766;6.884;2022-12-08T03:49:45;2.50;99.90
53045;DHT22;38930;52.766;6.884;2022-12-08T03:52:10;2.50;99.90
53045;DHT22;38930;52.766;6.884;2022-12-08T03:54:36;2.50;99.90
53045;DHT22;38930;52.766;6.884;2022-12-08T03:57:01;2.50;99.90
53045;DHT22;38930;52.766;6.884;2022-12-08T03:59:27;2.60;99.90
53045;DHT22;38930;52.766;6.884;2022-12-08T04:01:53;2.60;99.90
53045;DHT22;38930;52.766;6.884;2022-12-08T04:04:18;2.60;99.90
53045;DHT22;38930;52.766;6.884;2022-12-08T04:06:44;2.60;99.90
53045;DHT22;38930;52.766;6.884;2022-12-08T04:09:09;2.60;99.90
53045;DHT22;38930;52.766;6.884;2022-12-08T04:11:35;2.60;99.90
53045;DHT22;38930;52.766;6.884;2022-12-08T04:14:00;2.60;99.90
53045;DHT22;38930;52.766;6.884;2022-12-08T04:16:26;2.60;99.90
53045;DHT22;38930;52.766;6.884;2022-12-08T04:18:53;2.70;99.90
53045;DHT22;38930;52.766;6.884;2022-12-08T04:21:18;2.70;99.90
53045;DHT22;38930;52.766;6.884;2022-12-08T04:23:44;2.70;99.90
53045;DHT22;38930;52.766;6.884;2022-12-08T04:26:10;2.70;99.90
53045;DHT22;38930;52.766;6.884;2022-12-08T04:28:36;2.70;99.90
53045;DHT22;38930;52.766;6.884;2022-12-08T04:31:02;2.70;99.90
53045;DHT22;38930;52.766;6.884;2022-12-08T04:33:28;2.80;99.90
53045;DHT22;38930;52.766;6.884;2022-12-08T04:35:53;2.70;99.90
53045;DHT22;38930;52.766;6.884;2022-12-08T04:38:19;2.70;99.90
53045;DHT22;38930;52.766;6.884;2022-12-08T04:40:44;2.70;99.90
53045;DHT22;38930;52.766;6.884;2022-12-08T04:43:10;2.70;99.90
53045;DHT22;38930;52.766;6.884;2022-12-08T04:45:38;2.80;99.90
53045;DHT22;38930;52.766;6.884;2022-12-08T04:48:04;2.80;99.90
53045;DHT22;38930;52.766;6.884;2022-12-08T04:50:30;2.80;99.90
53045;DHT22;38930;52.766;6.884;2022-12-08T04:52:55;2.80;99.90
53045;DHT22;38930;52.766;6.884;2022-12-08T04:55:21;2.80;99.90
53045;DHT22;38930;52.766;6.884;2022-12-08T04:57:47;2.80;99.90
53045;DHT22;38930;52.766;6.884;2022-12-08T05:00:13;2.80;99.90
53045;DHT22;38930;52.766;6.884;2022-12-08T05:02:38;2.80;99.90
53045;DHT22;38930;52.766;6.884;2022-12-08T05:05:05;2.80;99.90
53045;DHT22;38930;52.766;6.884;2022-12-08T05:07:31;2.90;99.90
53045;DHT22;38930;52.766;6.884;2022-12-08T05:09:56;2.90;99.90
53045;DHT22;38930;52.766;6.884;2022-12-08T05:12:22;2.90;99.90
53045;DHT22;38930;52.766;6.884;2022-12-08T05:14:47;2.90;99.90
53045;DHT22;38930;52.766;6.884;2022-12-08T05:17:17;2.80;99.90
53045;DHT22;38930;52.766;6.884;2022-12-08T05:19:43;2.90;99.90
53045;DHT22;38930;52.766;6.884;2022-12-08T05:22:08;2.90;99.90
53045;DHT22;38930;52.766;6.884;2022-12-08T05:24:34;2.90;99.90
53045;DHT22;38930;52.766;6.884;2022-12-08T05:27:00;2.90;99.90
53045;DHT22;38930;52.766;6.884;2022-12-08T05:29:25;2.90;99.90
53045;DHT22;38930;52.766;6.884;2022-12-08T05:31:51;2.90;99.90
53045;DHT22;38930;52.766;6.884;2022-12-08T05:34:16;2.90;99.90
53045;DHT22;38930;52.766;6.884;2022-12-08T05:36:42;2.90;99.90
53045;DHT22;38930;52.766;6.884;2022-12-08T05:39:11;2.90;99.90
53045;DHT22;38930;52.766;6.884;2022-12-08T05:41:37;2.90;99.90
53045;DHT22;38930;52.766;6.884;2022-12-08T05:44:03;2.90;99.90
53045;DHT22;38930;52.766;6.884;2022-12-08T05:46:28;3.30;99.90
53045;DHT22;38930;52.766;6.884;2022-12-08T05:48:54;2.90;99.90
53045;DHT22;38930;52.766;6.884;2022-12-08T05:51:22;2.90;99.90
53045;DHT22;38930;52.766;6.884;2022-12-08T05:53:49;2.90;99.90
53045;DHT22;38930;52.766;6.884;2022-12-08T05:56:15;2.90;99.90
53045;DHT22;38930;52.766;6.884;2022-12-08T05:58:41;2.90;99.90
53045;DHT22;38930;52.766;6.884;2022-12-08T06:01:07;2.90;99.90
53045;DHT22;38930;52.766;6.884;2022-12-08T06:03:32;2.90;99.90
53045;DHT22;38930;52.766;6.884;2022-12-08T06:05:58;2.90;99.90
53045;DHT22;38930;52.766;6.884;2022-12-08T06:08:24;2.90;99.90
53045;DHT22;38930;52.766;6.884;2022-12-08T06:10:49;2.90;99.90
53045;DHT22;38930;52.766;6.884;2022-12-08T06:13:15;2.90;99.90
53045;DHT22;38930;52.766;6.884;2022-12-08T06:15:41;2.90;99.90
53045;DHT22;38930;52.766;6.884;2022-12-08T06:18:08;2.90;99.90
53045;DHT22;38930;52.766;6.884;2022-12-08T06:20:34;2.90;99.90
53045;DHT22;38930;52.766;6.884;2022-12-08T06:22:59;3.80;99.90
53045;DHT22;38930;52.766;6.884;2022-12-08T06:25:25;2.90;99.90
53045;DHT22;38930;52.766;6.884;2022-12-08T06:27:51;2.90;99.90
53045;DHT22;38930;52.766;6.884;2022-12-08T06:30:16;3.10;99.90
53045;DHT22;38930;52.766;6.884;2022-12-08T06:32:42;2.90;99.90
53045;DHT22;38930;52.766;6.884;2022-12-08T06:35:09;2.80;99.90
53045;DHT22;38930;52.766;6.884;2022-12-08T06:37:34;2.80;99.90
53045;DHT22;38930;52.766;6.884;2022-12-08T06:40:00;2.80;99.90
53045;DHT22;38930;52.766;6.884;2022-12-08T06:42:26;2.90;99.90
53045;DHT22;38930;52.766;6.884;2022-12-08T06:45:13;2.40;99.90
53045;DHT22;38930;52.766;6.884;2022-12-08T06:47:38;2.90;99.90
53045;DHT22;38930;52.766;6.884;2022-12-08T06:50:05;2.90;99.90
53045;DHT22;38930;52.766;6.884;2022-12-08T06:52:31;2.90;99.90
53045;DHT22;38930;52.766;6.884;2022-12-08T06:54:56;2.90;99.90
53045;DHT22;38930;52.766;6.884;2022-12-08T06:57:22;2.90;99.90
53045;DHT22;38930;52.766;6.884;2022-12-08T06:59:48;3.60;99.90
53045;DHT22;38930;52.766;6.884;2022-12-08T07:02:14;2.80;99.90
53045;DHT22;38930;52.766;6.884;2022-12-08T07:04:39;2.80;99.90
53045;DHT22;38930;52.766;6.884;2022-12-08T07:07:05;2.80;99.90
53045;DHT22;38930;52.766;6.884;2022-12-08T07:09:30;2.80;99.90
53045;DHT22;38930;52.766;6.884;2022-12-08T07:11:56;2.80;99.90
53045;DHT22;38930;52.766;6.884;2022-12-08T07:14:21;2.80;99.90
53045;DHT22;38930;52.766;6.884;2022-12-08T07:16:50;2.80;99.90
53045;DHT22;38930;52.766;6.884;2022-12-08T07:19:16;2.80;99.90
53045;DHT22;38930;52.766;6.884;2022-12-08T07:21:42;2.80;99.90
53045;DHT22;38930;52.766;6.884;2022-12-08T07:24:07;2.80;99.90
53045;DHT22;38930;52.766;6.884;2022-12-08T07:26:33;2.80;99.90
53045;DHT22;38930;52.766;6.884;2022-12-08T07:28:59;2.80;99.90
53045;DHT22;38930;52.766;6.884;2022-12-08T07:31:26;2.80;99.90
53045;DHT22;38930;52.766;6.884;2022-12-08T07:33:53;2.70;99.90
53045;DHT22;38930;52.766;6.884;2022-12-08T07:36:19;2.70;99.90
53045;DHT22;38930;52.766;6.884;2022-12-08T07:38:44;2.70;99.90
53045;DHT22;38930;52.766;6.884;2022-12-08T07:41:16;2.60;99.90
53045;DHT22;38930;52.766;6.884;2022-12-08T07:43:43;2.60;99.90
53045;DHT22;38930;52.766;6.884;2022-12-08T07:46:15;2.60;99.90
53045;DHT22;38930;52.766;6.884;2022-12-08T07:48:41;2.60;99.90
53045;DHT22;38930;52.766;6.884;2022-12-08T07:51:07;2.60;99.90
53045;DHT22;38930;52.766;6.884;2022-12-08T07:53:33;2.60;99.90
53045;DHT22;38930;52.766;6.884;2022-12-08T07:55:59;2.70;99.90
53045;DHT22;38930;52.766;6.884;2022-12-08T07:58:25;2.60;99.90
53045;DHT22;38930;52.766;6.884;2022-12-08T08:00:51;2.60;99.90
53045;DHT22;38930;52.766;6.884;2022-12-08T08:03:17;2.60;99.90
53045;DHT22;38930;52.766;6.884;2022-12-08T08:05:43;2.60;99.90
53045;DHT22;38930;52.766;6.884;2022-12-08T08:08:09;2.60;99.90
53045;DHT22;38930;52.766;6.884;2022-12-08T08:10:35;2.60;99.90
53045;DHT22;38930;52.766;6.884;2022-12-08T08:13:00;2.60;99.90
53045;DHT22;38930;52.766;6.884;2022-12-08T08:15:26;2.60;99.90
53045;DHT22;38930;52.766;6.884;2022-12-08T08:17:52;2.60;99.90
53045;DHT22;38930;52.766;6.884;2022-12-08T08:20:19;2.50;99.90
53045;DHT22;38930;52.766;6.884;2022-12-08T08:22:49;2.50;99.90
53045;DHT22;38930;52.766;6.884;2022-12-08T08:25:16;2.50;99.90
53045;DHT22;38930;52.766;6.884;2022-12-08T08:27:42;2.50;99.90
53045;DHT22;38930;52.766;6.884;2022-12-08T08:30:10;2.50;99.90
53045;DHT22;38930;52.766;6.884;2022-12-08T08:32:36;2.50;99.90
53045;DHT22;38930;52.766;6.884;2022-12-08T08:35:02;2.50;99.90
53045;DHT22;38930;52.766;6.884;2022-12-08T08:37:28;2.50;99.90
53045;DHT22;38930;52.766;6.884;2022-12-08T08:39:54;2.50;99.90
53045;DHT22;38930;52.766;6.884;2022-12-08T08:42:20;2.50;99.90
53045;DHT22;38930;52.766;6.884;2022-12-08T08:44:46;2.50;99.90
53045;DHT22;38930;52.766;6.884;2022-12-08T08:47:12;2.50;99.90
53045;DHT22;38930;52.766;6.884;2022-12-08T08:49:38;2.50;99.90
53045;DHT22;38930;52.766;6.884;2022-12-08T08:52:04;2.50;99.90
53045;DHT22;38930;52.766;6.884;2022-12-08T08:54:30;2.50;99.90
53045;DHT22;38930;52.766;6.884;2022-12-08T08:56:57;2.50;99.90
53045;DHT22;38930;52.766;6.884;2022-12-08T08:59:23;2.80;99.90
53045;DHT22;38930;52.766;6.884;2022-12-08T09:01:48;2.50;99.90
53045;DHT22;38930;52.766;6.884;2022-12-08T09:04:14;2.50;99.90
53045;DHT22;38930;52.766;6.884;2022-12-08T09:06:40;2.50;99.90
53045;DHT22;38930;52.766;6.884;2022-12-08T09:09:07;2.50;99.90
53045;DHT22;38930;52.766;6.884;2022-12-08T09:11:33;2.50;99.90
53045;DHT22;38930;52.766;6.884;2022-12-08T09:13:59;2.50;99.90
53045;DHT22;38930;52.766;6.884;2022-12-08T09:16:24;2.60;99.90
53045;DHT22;38930;52.766;6.884;2022-12-08T09:18:50;2.50;99.90
53045;DHT22;38930;52.766;6.884;2022-12-08T09:21:21;2.60;99.90
53045;DHT22;38930;52.766;6.884;2022-12-08T09:23:53;2.60;99.90
53045;DHT22;38930;52.766;6.884;2022-12-08T09:26:19;2.60;99.90
53045;DHT22;38930;52.766;6.884;2022-12-08T09:28:47;2.50;99.90
53045;DHT22;38930;52.766;6.884;2022-12-08T09:31:15;2.50;99.90
53045;DHT22;38930;52.766;6.884;2022-12-08T09:33:41;2.50;99.90
53045;DHT22;38930;52.766;6.884;2022-12-08T09:36:07;2.80;99.90
53045;DHT22;38930;52.766;6.884;2022-12-08T09:38:33;2.60;99.90
53045;DHT22;38930;52.766;6.884;2022-12-08T09:41:00;2.50;99.90
53045;DHT22;38930;52.766;6.884;2022-12-08T09:43:35;3.60;99.90
53045;DHT22;38930;52.766;6.884;2022-12-08T09:46:08;2.50;99.90
53045;DHT22;38930;52.766;6.884;2022-12-08T09:48:38;2.60;99.90
53045;DHT22;38930;52.766;6.884;2022-12-08T09:51:07;2.50;99.90
53045;DHT22;38930;52.766;6.884;2022-12-08T09:53:45;2.50;99.90
53045;DHT22;38930;52.766;6.884;2022-12-08T09:58:50;2.50;99.90
53045;DHT22;38930;52.766;6.884;2022-12-08T10:01:23;2.50;99.90
53045;DHT22;38930;52.766;6.884;2022-12-08T10:03:51;2.50;99.90
53045;DHT22;38930;52.766;6.884;2022-12-08T10:09:17;2.50;99.90
53045;DHT22;38930;52.766;6.884;2022-12-08T10:12:12;2.60;99.90
53045;DHT22;38930;52.766;6.884;2022-12-08T10:14:43;2.60;99.90
53045;DHT22;38930;52.766;6.884;2022-12-08T10:17:16;2.60;99.90
53045;DHT22;38930;52.766;6.884;2022-12-08T10:19:44;2.60;99.90
53045;DHT22;38930;52.766;6.884;2022-12-08T10:22:22;2.60;99.90
53045;DHT22;38930;52.766;6.884;2022-12-08T10:27:24;2.60;99.90
53045;DHT22;38930;52.766;6.884;2022-12-08T10:29:50;2.60;99.90
53045;DHT22;38930;52.766;6.884;2022-12-08T10:32:21;2.60;99.90
53045;DHT22;38930;52.766;6.884;2022-12-08T10:35:20;2.60;99.90
53045;DHT22;38930;52.766;6.884;2022-12-08T10:37:58;2.60;99.90
53045;DHT22;38930;52.766;6.884;2022-12-08T10:40:27;2.60;99.90
53045;DHT22;38930;52.766;6.884;2022-12-08T10:42:56;2.60;99.90
53045;DHT22;38930;52.766;6.884;2022-12-08T10:45:29;2.60;99.90
53045;DHT22;38930;52.766;6.884;2022-12-08T10:50:32;2.60;99.90
53045;DHT22;38930;52.766;6.884;2022-12-08T10:53:21;2.60;99.90
53045;DHT22;38930;52.766;6.884;2022-12-08T11:01:28;2.50;99.90
53045;DHT22;38930;52.766;6.884;2022-12-08T11:03:59;2.70;99.90
53045;DHT22;38930;52.766;6.884;2022-12-08T11:06:34;2.60;99.90
53045;DHT22;38930;52.766;6.884;2022-12-08T11:09:04;2.50;99.90
53045;DHT22;38930;52.766;6.884;2022-12-08T11:11:55;2.50;99.90
53045;DHT22;38930;52.766;6.884;2022-12-08T11:20:18;2.50;99.90
53045;DHT22;38930;52.766;6.884;2022-12-08T11:22:49;2.50;99.90
53045;DHT22;38930;52.766;6.884;2022-12-08T11:25:24;2.60;99.90
53045;DHT22;38930;52.766;6.884;2022-12-08T11:27:58;2.60;99.90
53045;DHT22;38930;52.766;6.884;2022-12-08T11:30:27;2.60;99.90
53045;DHT22;38930;52.766;6.884;2022-12-08T11:33:15;2.60;99.90
53045;DHT22;38930;52.766;6.884;2022-12-08T11:35:49;2.60;99.90
53045;DHT22;38930;52.766;6.884;2022-12-08T11:38:18;2.60;99.90
53045;DHT22;38930;52.766;6.884;2022-12-08T11:40:53;2.70;99.90
53045;DHT22;38930;52.766;6.884;2022-12-08T11:43:46;2.70;99.90
53045;DHT22;38930;52.766;6.884;2022-12-08T11:46:22;2.70;99.90
53045;DHT22;38930;52.766;6.884;2022-12-08T11:48:51;2.70;99.90
53045;DHT22;38930;52.766;6.884;2022-12-08T11:51:39;2.70;99.90
53045;DHT22;38930;52.766;6.884;2022-12-08T11:54:23;2.70;99.90
53045;DHT22;38930;52.766;6.884;2022-12-08T11:56:56;2.70;99.90
53045;DHT22;38930;52.766;6.884;2022-12-08T12:01:51;2.60;99.90
53045;DHT22;38930;52.766;6.884;2022-12-08T12:04:31;2.60;99.90
53045;DHT22;38930;52.766;6.884;2022-12-08T12:10:16;2.50;99.90
53045;DHT22;38930;52.766;6.884;2022-12-08T12:13:04;2.40;99.90
53045;DHT22;38930;52.766;6.884;2022-12-08T12:15:58;2.40;99.90
53045;DHT22;38930;52.766;6.884;2022-12-08T12:18:50;2.40;99.90
53045;DHT22;38930;52.766;6.884;2022-12-08T12:21:20;2.40;99.90
53045;DHT22;38930;52.766;6.884;2022-12-08T12:26:27;2.30;99.90
53045;DHT22;38930;52.766;6.884;2022-12-08T12:31:30;2.40;99.90
53045;DHT22;38930;52.766;6.884;2022-12-08T12:34:14;2.40;99.90
53045;DHT22;38930;52.766;6.884;2022-12-08T12:37:23;2.40;99.90
53045;DHT22;38930;52.766;6.884;2022-12-08T12:47:52;3.40;99.90
53045;DHT22;38930;52.766;6.884;2022-12-08T12:50:41;2.70;99.90
53045;DHT22;38930;52.766;6.884;2022-12-08T13:03:48;3.00;99.90
53045;DHT22;38930;52.766;6.884;2022-12-08T13:06:25;3.10;99.90
53045;DHT22;38930;52.766;6.884;2022-12-08T13:08:57;3.10;99.90
53045;DHT22;38930;52.766;6.884;2022-12-08T13:11:24;3.20;99.90
53045;DHT22;38930;52.766;6.884;2022-12-08T13:13:58;3.20;99.90
53045;DHT22;38930;52.766;6.884;2022-12-08T13:16:26;3.30;99.90
53045;DHT22;38930;52.766;6.884;2022-12-08T13:19:00;3.30;99.90
53045;DHT22;38930;52.766;6.884;2022-12-08T13:21:36;3.30;99.90
53045;DHT22;38930;52.766;6.884;2022-12-08T13:29:28;3.40;99.90
53045;DHT22;38930;52.766;6.884;2022-12-08T13:31:59;3.40;99.90
53045;DHT22;38930;52.766;6.884;2022-12-08T13:34:38;3.40;99.90
53045;DHT22;38930;52.766;6.884;2022-12-08T13:47:21;3.50;99.90
53045;DHT22;38930;52.766;6.884;2022-12-08T13:49:58;3.50;99.90
53045;DHT22;38930;52.766;6.884;2022-12-08T13:52:59;3.50;99.90
53045;DHT22;38930;52.766;6.884;2022-12-08T13:55:39;3.50;99.90
53045;DHT22;38930;52.766;6.884;2022-12-08T13:58:14;3.50;99.90
53045;DHT22;38930;52.766;6.884;2022-12-08T14:00:40;3.50;99.90
53045;DHT22;38930;52.766;6.884;2022-12-08T14:03:10;3.50;99.90
53045;DHT22;38930;52.766;6.884;2022-12-08T14:05:41;3.60;99.90
53045;DHT22;38930;52.766;6.884;2022-12-08T14:08:30;3.60;99.90
53045;DHT22;38930;52.766;6.884;2022-12-08T14:11:02;3.70;99.90
53045;DHT22;38930;52.766;6.884;2022-12-08T14:13:30;4.50;99.90
53045;DHT22;38930;52.766;6.884;2022-12-08T14:15:56;3.60;99.90
53045;DHT22;38930;52.766;6.884;2022-12-08T14:18:27;3.60;99.90
53045;DHT22;38930;52.766;6.884;2022-12-08T14:21:05;3.50;99.90
53045;DHT22;38930;52.766;6.884;2022-12-08T14:23:35;3.50;99.90
53045;DHT22;38930;52.766;6.884;2022-12-08T14:26:02;3.50;99.90
53045;DHT22;38930;52.766;6.884;2022-12-08T14:28:33;3.40;99.90
53045;DHT22;38930;52.766;6.884;2022-12-08T14:30:58;3.40;99.90
53045;DHT22;38930;52.766;6.884;2022-12-08T14:33:25;3.30;99.90
53045;DHT22;38930;52.766;6.884;2022-12-08T14:35:53;3.20;99.90
53045;DHT22;38930;52.766;6.884;2022-12-08T14:38:20;3.10;99.90
53045;DHT22;38930;52.766;6.884;2022-12-08T14:41:02;3.40;99.90
53045;DHT22;38930;52.766;6.884;2022-12-08T14:43:29;3.00;99.90
53045;DHT22;38930;52.766;6.884;2022-12-08T14:45:56;3.00;99.90
53045;DHT22;38930;52.766;6.884;2022-12-08T14:54:06;3.00;99.90
53045;DHT22;38930;52.766;6.884;2022-12-08T14:56:52;3.00;99.90
53045;DHT22;38930;52.766;6.884;2022-12-08T15:02:07;3.00;99.90
53045;DHT22;38930;52.766;6.884;2022-12-08T15:04:36;3.00;99.90
53045;DHT22;38930;52.766;6.884;2022-12-08T15:07:06;3.00;99.90
53045;DHT22;38930;52.766;6.884;2022-12-08T15:12:30;3.00;99.90
53045;DHT22;38930;52.766;6.884;2022-12-08T15:14:58;3.00;99.90
53045;DHT22;38930;52.766;6.884;2022-12-08T15:22:50;3.00;99.90
53045;DHT22;38930;52.766;6.884;2022-12-08T15:25:15;2.90;99.90
53045;DHT22;38930;52.766;6.884;2022-12-08T15:27:42;2.90;99.90
53045;DHT22;38930;52.766;6.884;2022-12-08T15:30:14;2.90;99.90
53045;DHT22;38930;52.766;6.884;2022-12-08T15:32:40;2.90;99.90
53045;DHT22;38930;52.766;6.884;2022-12-08T15:35:06;2.80;99.90
53045;DHT22;38930;52.766;6.884;2022-12-08T15:37:32;2.80;99.90
53045;DHT22;38930;52.766;6.884;2022-12-08T15:39:58;2.70;99.90
53045;DHT22;38930;52.766;6.884;2022-12-08T15:42:23;2.70;99.90
53045;DHT22;38930;52.766;6.884;2022-12-08T15:44:49;2.70;99.90
53045;DHT22;38930;52.766;6.884;2022-12-08T15:47:17;2.60;99.90
53045;DHT22;38930;52.766;6.884;2022-12-08T15:49:44;2.60;99.90
53045;DHT22;38930;52.766;6.884;2022-12-08T15:52:18;2.60;99.90
53045;DHT22;38930;52.766;6.884;2022-12-08T15:54:44;2.50;99.90
53045;DHT22;38930;52.766;6.884;2022-12-08T15:57:22;2.50;99.90
53045;DHT22;38930;52.766;6.884;2022-12-08T15:59:49;2.50;99.90
53045;DHT22;38930;52.766;6.884;2022-12-08T16:02:15;2.50;99.90
53045;DHT22;38930;52.766;6.884;2022-12-08T16:04:41;2.50;99.90
53045;DHT22;38930;52.766;6.884;2022-12-08T16:09:42;2.40;99.90
53045;DHT22;38930;52.766;6.884;2022-12-08T16:12:20;3.20;99.90
53045;DHT22;38930;52.766;6.884;2022-12-08T16:15:05;2.30;99.90
53045;DHT22;38930;52.766;6.884;2022-12-08T16:17:31;2.30;99.90
53045;DHT22;38930;52.766;6.884;2022-12-08T16:19:57;2.30;99.90
53045;DHT22;38930;52.766;6.884;2022-12-08T16:22:26;2.30;99.90
53045;DHT22;38930;52.766;6.884;2022-12-08T16:24:52;2.30;99.90
53045;DHT22;38930;52.766;6.884;2022-12-08T16:27:29;2.30;99.90
53045;DHT22;38930;52.766;6.884;2022-12-08T16:29:56;2.40;99.90
53045;DHT22;38930;52.766;6.884;2022-12-08T16:32:22;2.40;99.90
53045;DHT22;38930;52.766;6.884;2022-12-08T16:34:49;2.40;99.90
53045;DHT22;38930;52.766;6.884;2022-12-08T16:37:20;2.40;99.90
53045;DHT22;38930;52.766;6.884;2022-12-08T16:39:47;2.50;99.90
53045;DHT22;38930;52.766;6.884;2022-12-08T16:42:19;2.50;99.90
53045;DHT22;38930;52.766;6.884;2022-12-08T16:45:25;2.50;99.90
53045;DHT22;38930;52.766;6.884;2022-12-08T16:47:57;2.50;99.90
53045;DHT22;38930;52.766;6.884;2022-12-08T16:50:26;2.60;99.90
53045;DHT22;38930;52.766;6.884;2022-12-08T16:53:04;2.60;99.90
53045;DHT22;38930;52.766;6.884;2022-12-08T16:55:30;2.60;99.90
53045;DHT22;38930;52.766;6.884;2022-12-08T16:57:56;2.60;99.90
53045;DHT22;38930;52.766;6.884;2022-12-08T17:00:24;2.60;99.90
53045;DHT22;38930;52.766;6.884;2022-12-08T17:02:50;2.70;99.90
53045;DHT22;38930;52.766;6.884;2022-12-08T17:05:18;2.70;99.90
53045;DHT22;38930;52.766;6.884;2022-12-08T17:07:46;2.70;99.90
53045;DHT22;38930;52.766;6.884;2022-12-08T17:10:16;2.70;99.90
53045;DHT22;38930;52.766;6.884;2022-12-08T17:12:42;2.70;99.90
53045;DHT22;38930;52.766;6.884;2022-12-08T17:15:10;2.70;99.90
53045;DHT22;38930;52.766;6.884;2022-12-08T17:17:36;2.70;99.90
53045;DHT22;38930;52.766;6.884;2022-12-08T17:20:05;2.70;99.90
53045;DHT22;38930;52.766;6.884;2022-12-08T17:22:32;2.70;99.90
53045;DHT22;38930;52.766;6.884;2022-12-08T17:24:59;2.70;99.90
53045;DHT22;38930;52.766;6.884;2022-12-08T17:27:25;2.70;99.90
53045;DHT22;38930;52.766;6.884;2022-12-08T17:29:51;2.70;99.90
53045;DHT22;38930;52.766;6.884;2022-12-08T17:32:16;3.50;99.90
53045;DHT22;38930;52.766;6.884;2022-12-08T17:34:43;2.70;99.90
53045;DHT22;38930;52.766;6.884;2022-12-08T17:37:08;2.70;99.90
53045;DHT22;38930;52.766;6.884;2022-12-08T17:39:34;2.60;99.90
53045;DHT22;38930;52.766;6.884;2022-12-08T17:42:01;2.60;99.90
53045;DHT22;38930;52.766;6.884;2022-12-08T17:44:26;2.60;99.90
53045;DHT22;38930;52.766;6.884;2022-12-08T17:46:52;2.60;99.90
53045;DHT22;38930;52.766;6.884;2022-12-08T17:49:20;2.70;99.90
53045;DHT22;38930;52.766;6.884;2022-12-08T17:51:47;2.50;99.90
53045;DHT22;38930;52.766;6.884;2022-12-08T17:54:14;2.50;99.90